Time;durP1;ratioP1;P1;durP2;ratioP2;P2;SDS_P1;SDS_P2;PMS_P1;PMS_P2;Temp;Humidity;BMP_temperature;BMP_pressure;BME280_temperature;BME280_humidity;BME280_pressure;Samples;Min_cycle;Max_cycle;Signal;HPM_P1;HPM_P2
2024/01/11 00:00:37;;;;;;;50.40;26.80;;;;;;;;;;5061908;28;20037;-79
2024/01/11 00:03:03;;;;;;;51.58;25.77;;;;;;;;;;5079270;28;20040;-78
2024/01/11 00:05:29;;;;;;;50.17;27.25;;;;;;;;;;5079667;28;20202;-80
2024/01/11 00:07:55;;;;;;;49.03;26.35;;;;;;;;;;5067547;28;20409;-78
2024/01/11 00:10:21;;;;;;;54.55;28.70;;;;;;;;;;5085772;28;20042;-77
2024/01/11 00:12:47;;;;;;;52.83;27.75;;;;;;;;;;5061866;28;20028;-78
2024/01/11 00:15:13;;;;;;;55.60;27.80;;;;;;;;;;5061678;28;20248;-77
2024/01/11 00:17:40;;;;;;;55.85;26.98;;;;;;;;;;5047562;28;20032;-78
2024/01/11 00:20:06;;;;;;;50.05;27.38;;;;;;;;;;5068885;28;20119;-79
2024/01/11 00:22:32;;;;;;;53.35;28.20;;;;;;;;;;5061196;28;20041;-78
2024/01/11 00:24:58;;;;;;;54.70;29.80;;;;;;;;;;5059591;28;20058;-78
2024/01/11 00:27:24;;;;;;;53.30;27.02;;;;;;;;;;5062396;28;20036;-78
2024/01/11 00:29:50;;;;;;;54.20;27.48;;;;;;;;;;5073463;28;20048;-78
2024/01/11 00:32:17;;;;;;;49.67;26.77;;;;;;;;;;5077315;28;20043;-78
2024/01/11 00:34:46;;;;;;;51.97;26.30;;;;;;;;;;5058032;28;20047;-78
2024/01/11 00:37:12;;;;;;;52.28;27.42;;;;;;;;;;5068136;28;20128;-77
2024/01/11 00:39:38;;;;;;;55.47;27.05;;;;;;;;;;5074903;28;20032;-78
2024/01/11 00:42:04;;;;;;;52.28;27.55;;;;;;;;;;5061184;28;20043;-78
2024/01/11 00:44:31;;;;;;;52.75;27.20;;;;;;;;;;5077454;28;20171;-78
2024/01/11 00:46:57;;;;;;;51.28;27.38;;;;;;;;;;5067451;28;20047;-78
2024/01/11 00:49:23;;;;;;;54.00;26.83;;;;;;;;;;5060118;28;20162;-77
2024/01/11 00:51:49;;;;;;;50.88;26.73;;;;;;;;;;5066155;28;20507;-78
2024/01/11 00:54:15;;;;;;;49.38;27.02;;;;;;;;;;5078935;28;20036;-75
2024/01/11 00:56:41;;;;;;;54.35;27.05;;;;;;;;;;5067873;28;20036;-75
2024/01/11 00:59:07;;;;;;;61.10;28.73;;;;;;;;;;5066720;28;20066;-76
2024/01/11 01:01:33;;;;;;;55.58;28.90;;;;;;;;;;5058780;28;20130;-75
2024/01/11 01:03:59;;;;;;;59.95;29.98;;;;;;;;;;5071240;28;20507;-76
2024/01/11 01:06:25;;;;;;;61.53;29.48;;;;;;;;;;5072957;28;20036;-75
2024/01/11 01:08:51;;;;;;;60.47;29.67;;;;;;;;;;5066694;28;20119;-76
2024/01/11 01:11:17;;;;;;;58.55;28.77;;;;;;;;;;5086982;28;20077;-76
2024/01/11 01:13:44;;;;;;;63.50;29.35;;;;;;;;;;5078652;28;20040;-77
2024/01/11 01:16:10;;;;;;;61.42;30.50;;;;;;;;;;5052812;28;20037;-75
2024/01/11 01:18:36;;;;;;;64.95;32.05;;;;;;;;;;5071488;28;20075;-75
2024/01/11 01:21:02;;;;;;;62.92;30.95;;;;;;;;;;5053096;28;20044;-75
2024/01/11 01:23:28;;;;;;;54.30;28.80;;;;;;;;;;5064645;28;20175;-76
2024/01/11 01:25:54;;;;;;;60.00;29.65;;;;;;;;;;5079395;28;20135;-75
2024/01/11 01:28:20;;;;;;;63.55;30.83;;;;;;;;;;5090094;28;20062;-75
2024/01/11 01:30:47;;;;;;;60.58;30.38;;;;;;;;;;5089125;28;20055;-75
2024/01/11 01:33:13;;;;;;;58.20;29.35;;;;;;;;;;5063016;28;20145;-77
2024/01/11 01:35:39;;;;;;;58.75;29.13;;;;;;;;;;5090716;28;20032;-75
2024/01/11 01:38:05;;;;;;;55.38;26.20;;;;;;;;;;5072879;28;20032;-74
2024/01/11 01:40:34;;;;;;;51.08;26.40;;;;;;;;;;5073454;28;20078;-76
2024/01/11 01:43:00;;;;;;;47.58;26.35;;;;;;;;;;5053589;28;20431;-76
2024/01/11 01:45:27;;;;;;;49.97;26.13;;;;;;;;;;5088187;28;20094;-75
2024/01/11 01:47:54;;;;;;;48.80;25.23;;;;;;;;;;5087072;28;20059;-75
2024/01/11 01:50:21;;;;;;;50.13;26.25;;;;;;;;;;5071976;28;20518;-74
2024/01/11 01:52:48;;;;;;;47.97;25.60;;;;;;;;;;5079454;28;20036;-74
2024/01/11 01:55:15;;;;;;;51.78;26.13;;;;;;;;;;5089824;28;20084;-74
2024/01/11 01:57:43;;;;;;;51.83;26.88;;;;;;;;;;5066198;28;20373;-74
2024/01/11 02:00:11;;;;;;;51.00;26.63;;;;;;;;;;5093644;28;20110;-77
2024/01/11 02:02:38;;;;;;;49.00;24.88;;;;;;;;;;5090146;28;20404;-75
2024/01/11 02:05:05;;;;;;;53.40;27.70;;;;;;;;;;5083047;28;20055;-81
2024/01/11 02:07:32;;;;;;;48.38;25.08;;;;;;;;;;5084199;28;20126;-81
2024/01/11 02:09:59;;;;;;;54.63;25.63;;;;;;;;;;5071215;28;20090;-82
2024/01/11 02:12:26;;;;;;;51.08;25.50;;;;;;;;;;5081164;28;20055;-82
2024/01/11 02:14:54;;;;;;;48.85;24.50;;;;;;;;;;5078980;28;20035;-83
2024/01/11 02:17:20;;;;;;;49.40;26.58;;;;;;;;;;5070659;28;20478;-82
2024/01/11 02:19:46;;;;;;;49.55;25.42;;;;;;;;;;5066745;28;20028;-82
2024/01/11 02:22:33;;;;;;;45.70;23.92;;;;;;;;;;5081774;28;20486;-80
2024/01/11 02:24:59;;;;;;;50.03;24.90;;;;;;;;;;5097630;28;20028;-81
2024/01/11 02:27:25;;;;;;;47.88;25.02;;;;;;;;;;5068693;28;20043;-78
2024/01/11 02:29:51;;;;;;;46.90;23.70;;;;;;;;;;5076853;28;20043;-82
2024/01/11 02:32:17;;;;;;;49.15;24.35;;;;;;;;;;5066751;28;20040;-81
2024/01/11 02:34:43;;;;;;;46.92;24.92;;;;;;;;;;5085570;28;20032;-80
2024/01/11 02:37:09;;;;;;;48.15;25.42;;;;;;;;;;5088702;28;20044;-82
2024/01/11 02:39:36;;;;;;;50.25;25.08;;;;;;;;;;5068266;28;20475;-81
2024/01/11 02:42:02;;;;;;;47.85;23.90;;;;;;;;;;5070842;28;20036;-83
2024/01/11 02:44:28;;;;;;;47.03;24.92;;;;;;;;;;5062838;28;20396;-81
2024/01/11 02:46:54;;;;;;;48.60;24.58;;;;;;;;;;5068303;28;20033;-81
2024/01/11 02:49:20;;;;;;;51.47;26.23;;;;;;;;;;5072219;28;20040;-82
2024/01/11 02:51:46;;;;;;;45.33;24.70;;;;;;;;;;5069067;28;20040;-78
2024/01/11 02:54:12;;;;;;;49.30;25.48;;;;;;;;;;5069988;28;20089;-82
2024/01/11 02:56:38;;;;;;;54.53;28.17;;;;;;;;;;5068492;28;20113;-80
2024/01/11 02:59:04;;;;;;;52.35;27.02;;;;;;;;;;5069333;28;20042;-82
2024/01/11 03:01:30;;;;;;;56.20;27.70;;;;;;;;;;5058637;28;20044;-81
2024/01/11 03:03:57;;;;;;;53.30;26.13;;;;;;;;;;5084587;28;20060;-81
2024/01/11 03:06:23;;;;;;;57.03;27.85;;;;;;;;;;5053179;28;20113;-82
2024/01/11 03:08:50;;;;;;;51.20;26.60;;;;;;;;;;5070961;28;20504;-81
2024/01/11 03:11:16;;;;;;;52.13;25.92;;;;;;;;;;5088418;28;20041;-82
2024/01/11 03:13:42;;;;;;;51.92;26.73;;;;;;;;;;5082728;28;20407;-82
2024/01/11 03:16:08;;;;;;;52.55;26.88;;;;;;;;;;5067179;28;20123;-77
2024/01/11 03:18:34;;;;;;;54.83;27.17;;;;;;;;;;5052520;28;20549;-79
2024/01/11 03:21:00;;;;;;;52.35;26.63;;;;;;;;;;5063091;28;20041;-79
2024/01/11 03:23:26;;;;;;;49.03;26.27;;;;;;;;;;5068265;28;20044;-78
2024/01/11 03:25:53;;;;;;;48.50;25.92;;;;;;;;;;5083664;28;20052;-78
2024/01/11 03:28:19;;;;;;;52.13;26.98;;;;;;;;;;5069295;28;20043;-79
2024/01/11 03:30:45;;;;;;;54.97;28.50;;;;;;;;;;5065851;28;20059;-77
2024/01/11 03:33:11;;;;;;;47.45;26.27;;;;;;;;;;5082603;28;20036;-77
2024/01/11 03:35:40;;;;;;;51.67;27.95;;;;;;;;;;5084699;28;20050;-78
2024/01/11 03:38:06;;;;;;;47.45;26.02;;;;;;;;;;5073315;28;20043;-78
2024/01/11 03:40:32;;;;;;;51.38;26.85;;;;;;;;;;5081067;28;20071;-78
2024/01/11 03:42:59;;;;;;;56.15;27.00;;;;;;;;;;5052318;28;20109;-78
2024/01/11 03:45:25;;;;;;;54.85;27.80;;;;;;;;;;5058344;28;20036;-79
2024/01/11 03:47:51;;;;;;;51.25;27.38;;;;;;;;;;5066851;28;20036;-79
2024/01/11 03:50:17;;;;;;;59.28;28.60;;;;;;;;;;5071559;28;20044;-78
2024/01/11 03:52:43;;;;;;;51.20;26.58;;;;;;;;;;5076316;28;20384;-79
2024/01/11 03:55:09;;;;;;;52.15;26.50;;;;;;;;;;5075043;28;20054;-79
2024/01/11 03:57:35;;;;;;;52.58;28.13;;;;;;;;;;5067798;28;20502;-78
2024/01/11 04:00:02;;;;;;;51.08;26.45;;;;;;;;;;5076164;28;20028;-79
2024/01/11 04:02:28;;;;;;;56.17;28.23;;;;;;;;;;5068187;28;20039;-78
2024/01/11 04:04:54;;;;;;;55.55;28.65;;;;;;;;;;5085074;28;20040;-79
2024/01/11 04:07:20;;;;;;;50.03;26.15;;;;;;;;;;5093747;28;20044;-79
2024/01/11 04:09:46;;;;;;;53.72;28.75;;;;;;;;;;5085821;28;20110;-79
2024/01/11 04:12:12;;;;;;;57.40;28.88;;;;;;;;;;5054515;28;20051;-79
2024/01/11 04:14:40;;;;;;;56.05;30.10;;;;;;;;;;5091636;28;20032;-79
2024/01/11 04:17:06;;;;;;;55.15;29.02;;;;;;;;;;5090846;28;20433;-79
2024/01/11 04:19:32;;;;;;;55.55;28.08;;;;;;;;;;5094127;28;22059;-79
2024/01/11 04:21:58;;;;;;;53.70;27.80;;;;;;;;;;5086392;28;20043;-79
2024/01/11 04:24:24;;;;;;;58.85;29.23;;;;;;;;;;5070856;28;20046;-78
2024/01/11 04:26:51;;;;;;;52.35;27.85;;;;;;;;;;5080405;28;20059;-79
2024/01/11 04:29:18;;;;;;;56.00;28.52;;;;;;;;;;5055093;28;20457;-79
2024/01/11 04:31:44;;;;;;;55.83;27.80;;;;;;;;;;5074238;28;20097;-79
2024/01/11 04:34:10;;;;;;;63.13;30.38;;;;;;;;;;5052264;28;20044;-79
2024/01/11 04:36:40;;;;;;;57.10;28.95;;;;;;;;;;5073469;28;20063;-79
2024/01/11 04:39:07;;;;;;;61.03;30.45;;;;;;;;;;5071749;28;20479;-79
2024/01/11 04:41:33;;;;;;;57.92;29.13;;;;;;;;;;5067002;28;20057;-79
2024/01/11 04:43:59;;;;;;;59.75;30.38;;;;;;;;;;5091313;28;20495;-79
2024/01/11 04:46:26;;;;;;;56.05;29.65;;;;;;;;;;5077896;28;20453;-79
2024/01/11 04:48:53;;;;;;;55.03;28.55;;;;;;;;;;5069312;28;20442;-80
2024/01/11 04:51:19;;;;;;;60.38;30.27;;;;;;;;;;5048360;28;20040;-78
2024/01/11 04:53:46;;;;;;;60.28;30.00;;;;;;;;;;5085833;28;20040;-78
2024/01/11 04:56:14;;;;;;;62.42;30.73;;;;;;;;;;5065013;28;20391;-79
2024/01/11 04:58:41;;;;;;;58.10;30.88;;;;;;;;;;5083984;28;20472;-79
2024/01/11 05:01:07;;;;;;;60.97;31.42;;;;;;;;;;5086834;28;20062;-79
2024/01/11 05:03:33;;;;;;;58.53;29.92;;;;;;;;;;5080496;28;20450;-78
2024/01/11 05:06:00;;;;;;;60.80;30.00;;;;;;;;;;5076140;28;20541;-79
2024/01/11 05:08:27;;;;;;;57.78;29.60;;;;;;;;;;5078909;28;20044;-79
2024/01/11 05:10:53;;;;;;;57.72;30.50;;;;;;;;;;5079585;28;20503;-80
2024/01/11 05:13:20;;;;;;;55.97;29.17;;;;;;;;;;5071834;28;20032;-79
2024/01/11 05:15:46;;;;;;;61.22;30.90;;;;;;;;;;5077848;28;20037;-79
2024/01/11 05:18:12;;;;;;;59.30;29.58;;;;;;;;;;5066915;28;20483;-79
2024/01/11 05:20:39;;;;;;;59.90;29.98;;;;;;;;;;5079267;28;20036;-79
2024/01/11 05:23:05;;;;;;;61.92;31.33;;;;;;;;;;5082286;28;20066;-77
2024/01/11 05:25:34;;;;;;;56.63;28.38;;;;;;;;;;5063016;28;20547;-78
2024/01/11 05:28:00;;;;;;;59.95;31.38;;;;;;;;;;5076041;28;20048;-78
2024/01/11 05:30:27;;;;;;;60.47;29.48;;;;;;;;;;5058448;28;20131;-78
2024/01/11 05:32:53;;;;;;;56.88;29.83;;;;;;;;;;5051486;28;20067;-77
2024/01/11 05:35:20;;;;;;;57.15;28.90;;;;;;;;;;5069456;28;20037;-76
2024/01/11 05:37:46;;;;;;;60.53;30.98;;;;;;;;;;5069521;28;20036;-77
2024/01/11 05:40:12;;;;;;;59.60;29.42;;;;;;;;;;5080097;28;20040;-76
2024/01/11 05:42:38;;;;;;;58.63;28.05;;;;;;;;;;5081520;28;20552;-76
2024/01/11 05:45:05;;;;;;;68.18;31.35;;;;;;;;;;5087469;28;20139;-76
2024/01/11 05:47:31;;;;;;;56.85;29.65;;;;;;;;;;5054469;28;20047;-77
2024/01/11 05:49:57;;;;;;;57.70;28.98;;;;;;;;;;5080072;28;20062;-76
2024/01/11 05:52:23;;;;;;;62.47;30.48;;;;;;;;;;5061178;28;20044;-75
2024/01/11 05:54:49;;;;;;;62.70;31.42;;;;;;;;;;5080709;28;20032;-79
2024/01/11 05:57:16;;;;;;;60.88;30.65;;;;;;;;;;5083364;28;20089;-78
2024/01/11 05:59:45;;;;;;;60.78;29.55;;;;;;;;;;5063227;28;20036;-76
2024/01/11 06:02:12;;;;;;;62.20;29.88;;;;;;;;;;5077428;28;20097;-77
2024/01/11 06:04:38;;;;;;;62.55;30.27;;;;;;;;;;5058146;28;20059;-76
2024/01/11 06:07:04;;;;;;;58.58;28.83;;;;;;;;;;5073792;28;20048;-76
2024/01/11 06:09:30;;;;;;;59.42;29.50;;;;;;;;;;5066336;28;20476;-76
2024/01/11 06:11:56;;;;;;;58.55;29.98;;;;;;;;;;5070500;28;20041;-75
2024/01/11 06:14:23;;;;;;;58.22;28.65;;;;;;;;;;5070834;28;20043;-75
2024/01/11 06:16:49;;;;;;;55.08;27.80;;;;;;;;;;5069641;28;20047;-75
2024/01/11 06:19:15;;;;;;;56.08;27.90;;;;;;;;;;5071679;28;20467;-77
2024/01/11 06:21:41;;;;;;;57.53;28.38;;;;;;;;;;5055393;28;20036;-76
2024/01/11 06:24:07;;;;;;;59.15;28.02;;;;;;;;;;5069427;28;20045;-78
2024/01/11 06:26:33;;;;;;;55.85;27.48;;;;;;;;;;5066992;28;20447;-76
2024/01/11 06:28:59;;;;;;;57.90;28.30;;;;;;;;;;5069229;28;20055;-76
2024/01/11 06:31:26;;;;;;;59.25;29.75;;;;;;;;;;5084389;28;20112;-76
2024/01/11 06:33:52;;;;;;;60.17;29.08;;;;;;;;;;5069302;28;20032;-75
2024/01/11 06:36:21;;;;;;;58.53;29.02;;;;;;;;;;5069185;28;20035;-75
2024/01/11 06:38:47;;;;;;;58.30;28.52;;;;;;;;;;5068636;28;20803;-76
2024/01/11 06:41:14;;;;;;;53.63;27.10;;;;;;;;;;5056451;28;20052;-76
2024/01/11 06:43:41;;;;;;;61.00;29.23;;;;;;;;;;5065009;28;20044;-77
2024/01/11 06:46:09;;;;;;;57.65;27.67;;;;;;;;;;5079030;28;20036;-79
2024/01/11 06:48:35;;;;;;;55.13;27.95;;;;;;;;;;5067661;28;20498;-81
2024/01/11 06:51:01;;;;;;;53.08;26.60;;;;;;;;;;5063043;28;20032;-82
2024/01/11 06:53:27;;;;;;;54.97;28.33;;;;;;;;;;5062431;28;20070;-79
2024/01/11 06:55:53;;;;;;;55.05;26.70;;;;;;;;;;5077093;28;20037;-82
2024/01/11 06:58:23;;;;;;;53.85;27.25;;;;;;;;;;5062344;28;20040;-82
2024/01/11 07:00:50;;;;;;;53.45;27.48;;;;;;;;;;5060646;28;20039;-82
2024/01/11 07:03:16;;;;;;;53.53;27.48;;;;;;;;;;5066469;28;20119;-80
2024/01/11 07:05:42;;;;;;;53.40;26.48;;;;;;;;;;5063091;28;20044;-82
2024/01/11 07:08:08;;;;;;;52.95;27.17;;;;;;;;;;5057609;28;20102;-82
2024/01/11 07:10:34;;;;;;;56.08;27.20;;;;;;;;;;5076172;28;20080;-82
2024/01/11 07:13:00;;;;;;;50.40;24.00;;;;;;;;;;5077282;28;20036;-80
2024/01/11 07:15:26;;;;;;;48.45;24.40;;;;;;;;;;5066536;28;20071;-82
2024/01/11 07:17:53;;;;;;;52.95;25.58;;;;;;;;;;5066740;28;20533;-81
2024/01/11 07:20:19;;;;;;;54.75;26.55;;;;;;;;;;5052406;28;20043;-83
2024/01/11 07:22:45;;;;;;;47.10;23.75;;;;;;;;;;5082745;28;20036;-79
2024/01/11 07:25:11;;;;;;;45.58;22.75;;;;;;;;;;5075189;28;20047;-81
2024/01/11 07:27:39;;;;;;;45.03;24.02;;;;;;;;;;5079383;28;20032;-84
2024/01/11 07:30:06;;;;;;;47.70;23.58;;;;;;;;;;5064995;28;20547;-82
2024/01/11 07:32:32;;;;;;;46.30;23.50;;;;;;;;;;5074842;28;20077;-82
2024/01/11 07:34:58;;;;;;;54.80;26.52;;;;;;;;;;5059250;28;20032;-83
2024/01/11 07:37:26;;;;;;;46.17;22.92;;;;;;;;;;5049321;28;20039;-83
2024/01/11 07:39:52;;;;;;;50.42;24.30;;;;;;;;;;5052591;28;20127;-84
2024/01/11 07:42:19;;;;;;;55.38;24.63;;;;;;;;;;5067087;28;20038;-82
2024/01/11 07:44:45;;;;;;;46.20;22.92;;;;;;;;;;5060846;28;20057;-82
2024/01/11 07:47:11;;;;;;;46.40;23.33;;;;;;;;;;5082301;28;20072;-83
2024/01/11 07:49:37;;;;;;;47.33;24.13;;;;;;;;;;5084514;28;20044;-81
2024/01/11 07:52:04;;;;;;;52.03;26.63;;;;;;;;;;5064051;28;20086;-83
2024/01/11 07:54:31;;;;;;;49.05;25.00;;;;;;;;;;5070787;28;20064;-83
2024/01/11 07:56:57;;;;;;;51.03;25.55;;;;;;;;;;5060748;28;20036;-80
2024/01/11 07:59:23;;;;;;;49.83;24.58;;;;;;;;;;5062315;28;20035;-80
2024/01/11 08:01:49;;;;;;;50.47;23.60;;;;;;;;;;5063943;28;20040;-81
2024/01/11 08:04:15;;;;;;;51.20;24.45;;;;;;;;;;5052554;28;20094;-80
2024/01/11 08:06:42;;;;;;;52.70;25.67;;;;;;;;;;5067278;28;20086;-78
2024/01/11 08:09:10;;;;;;;53.92;26.20;;;;;;;;;;5089693;28;20051;-81
2024/01/11 08:11:36;;;;;;;47.70;24.38;;;;;;;;;;5076368;28;20120;-79
2024/01/11 08:14:02;;;;;;;53.08;24.52;;;;;;;;;;5075598;28;20032;-79
2024/01/11 08:16:28;;;;;;;50.92;24.77;;;;;;;;;;5082247;28;20036;-80
2024/01/11 08:18:55;;;;;;;49.03;24.10;;;;;;;;;;5064822;28;20032;-79
2024/01/11 08:21:21;;;;;;;47.05;24.08;;;;;;;;;;5082512;28;20392;-80
2024/01/11 08:23:48;;;;;;;48.70;24.13;;;;;;;;;;5072475;28;20043;-79
2024/01/11 08:26:15;;;;;;;50.85;24.95;;;;;;;;;;5084854;28;20075;-80
2024/01/11 08:28:41;;;;;;;50.25;25.70;;;;;;;;;;5065272;28;20036;-80
2024/01/11 08:31:08;;;;;;;45.03;22.42;;;;;;;;;;5066355;28;20084;-81
2024/01/11 08:33:36;;;;;;;45.63;23.63;;;;;;;;;;5080007;28;20906;-80
2024/01/11 08:36:03;;;;;;;43.25;22.98;;;;;;;;;;5068878;28;20032;-80
2024/01/11 08:38:30;;;;;;;45.20;23.52;;;;;;;;;;5067057;28;20040;-80
2024/01/11 08:40:56;;;;;;;46.97;22.63;;;;;;;;;;5076731;28;20126;-80
2024/01/11 08:43:22;;;;;;;47.58;25.00;;;;;;;;;;5078298;28;20071;-80
2024/01/11 08:45:48;;;;;;;51.25;25.35;;;;;;;;;;5069848;28;20109;-80
2024/01/11 08:48:15;;;;;;;49.40;24.38;;;;;;;;;;5076138;28;20040;-80
2024/01/11 08:50:41;;;;;;;46.53;24.55;;;;;;;;;;5064664;28;20466;-80
2024/01/11 08:53:07;;;;;;;54.03;26.58;;;;;;;;;;5078719;28;20034;-81
2024/01/11 08:55:33;;;;;;;51.97;24.95;;;;;;;;;;5085569;28;20036;-81
2024/01/11 08:58:00;;;;;;;45.95;22.88;;;;;;;;;;5068319;28;20039;-79
2024/01/11 09:00:29;;;;;;;47.17;23.40;;;;;;;;;;5072196;28;20038;-80
2024/01/11 09:02:55;;;;;;;49.17;25.27;;;;;;;;;;5082189;28;20040;-80
2024/01/11 09:05:21;;;;;;;50.95;24.48;;;;;;;;;;5063886;28;20087;-80
2024/01/11 09:07:47;;;;;;;44.33;22.77;;;;;;;;;;5068513;28;20135;-82
2024/01/11 09:10:14;;;;;;;47.65;24.27;;;;;;;;;;5071448;28;20185;-83
2024/01/11 09:12:40;;;;;;;45.70;22.70;;;;;;;;;;5072471;28;20036;-82
2024/01/11 09:15:06;;;;;;;46.00;22.48;;;;;;;;;;5061666;28;20054;-83
2024/01/11 09:17:32;;;;;;;48.05;23.83;;;;;;;;;;5072075;28;20078;-82
2024/01/11 09:19:58;;;;;;;44.00;22.42;;;;;;;;;;5067730;28;20044;-82
2024/01/11 09:22:25;;;;;;;42.35;22.88;;;;;;;;;;5083649;28;20123;-78
2024/01/11 09:24:52;;;;;;;45.78;22.63;;;;;;;;;;5087094;28;20055;-78
2024/01/11 09:27:18;;;;;;;42.97;22.67;;;;;;;;;;5082815;28;20067;-78
2024/01/11 09:29:44;;;;;;;45.97;23.40;;;;;;;;;;5072390;28;20043;-78
2024/01/11 09:32:10;;;;;;;44.05;22.40;;;;;;;;;;5083825;28;20044;-78
2024/01/11 09:34:36;;;;;;;44.53;22.27;;;;;;;;;;5074193;28;20052;-78
2024/01/11 09:37:03;;;;;;;38.22;19.95;;;;;;;;;;5068504;28;20040;-78
2024/01/11 09:39:29;;;;;;;42.05;21.83;;;;;;;;;;5080120;28;20036;-78
2024/01/11 09:41:59;;;;;;;38.47;21.33;;;;;;;;;;5073140;28;20047;-78
2024/01/11 09:44:30;;;;;;;43.40;22.30;;;;;;;;;;5066527;28;20039;-78
2024/01/11 09:46:57;;;;;;;44.67;23.50;;;;;;;;;;5087282;28;20046;-78
2024/01/11 09:49:23;;;;;;;46.22;21.92;;;;;;;;;;5051592;28;20040;-78
2024/01/11 09:51:50;;;;;;;46.72;23.20;;;;;;;;;;5084686;28;20499;-78
2024/01/11 09:54:16;;;;;;;46.17;24.50;;;;;;;;;;5055550;28;20040;-78
2024/01/11 09:56:43;;;;;;;44.45;23.42;;;;;;;;;;5077672;28;20098;-78
2024/01/11 09:59:10;;;;;;;45.40;22.75;;;;;;;;;;5067938;28;20043;-79
2024/01/11 10:01:37;;;;;;;44.17;21.85;;;;;;;;;;5076365;28;20043;-78
2024/01/11 10:04:04;;;;;;;46.75;22.70;;;;;;;;;;5063534;28;20123;-79
2024/01/11 10:06:33;;;;;;;42.20;21.95;;;;;;;;;;5065701;28;20044;-79
2024/01/11 10:08:59;;;;;;;44.65;21.67;;;;;;;;;;5067945;28;20047;-79
2024/01/11 10:11:25;;;;;;;44.10;24.33;;;;;;;;;;5078080;28;20109;-79
2024/01/11 10:13:59;;;;;;;45.30;22.75;;;;;;;;;;5060496;28;20510;-79
2024/01/11 10:16:25;;;;;;;48.70;24.42;;;;;;;;;;5080601;28;20040;-79
2024/01/11 10:18:54;;;;;;;44.10;23.30;;;;;;;;;;5069226;28;20167;-79
2024/01/11 10:21:20;;;;;;;45.33;22.77;;;;;;;;;;5067040;28;20052;-80
2024/01/11 10:23:46;;;;;;;43.15;22.58;;;;;;;;;;5075674;28;20483;-80
2024/01/11 10:26:15;;;;;;;46.00;22.73;;;;;;;;;;5068848;28;20043;-79
2024/01/11 10:28:45;;;;;;;42.03;22.50;;;;;;;;;;5073941;28;20048;-80
2024/01/11 10:31:11;;;;;;;44.10;23.20;;;;;;;;;;5085234;28;20899;-80
2024/01/11 10:33:37;;;;;;;42.13;21.85;;;;;;;;;;5068484;28;20467;-80
2024/01/11 10:36:04;;;;;;;42.30;19.83;;;;;;;;;;5068541;28;20064;-81
2024/01/11 10:38:31;;;;;;;43.15;22.55;;;;;;;;;;5077887;28;20395;-81
2024/01/11 10:41:00;;;;;;;45.58;23.17;;;;;;;;;;5070990;28;20123;-81
2024/01/11 10:43:26;;;;;;;46.05;23.48;;;;;;;;;;5071276;28;20162;-80
2024/01/11 10:45:57;;;;;;;37.60;19.58;;;;;;;;;;5059639;28;20047;-79
2024/01/11 10:48:25;;;;;;;44.72;21.70;;;;;;;;;;5079584;28;20044;-79
2024/01/11 10:51:02;;;;;;;45.45;23.80;;;;;;;;;;5067567;28;20414;-79
2024/01/11 10:53:37;;;;;;;44.45;22.20;;;;;;;;;;5097313;28;20488;-80
2024/01/11 10:56:04;;;;;;;43.72;22.10;;;;;;;;;;5080664;28;20488;-80
2024/01/11 10:58:30;;;;;;;37.22;18.23;;;;;;;;;;5085112;28;20510;-80
2024/01/11 11:00:58;;;;;;;38.78;20.02;;;;;;;;;;5085672;28;20036;-80
2024/01/11 11:03:24;;;;;;;41.88;20.88;;;;;;;;;;5074445;28;20403;-81
2024/01/11 11:05:53;;;;;;;42.65;22.45;;;;;;;;;;5081762;28;20044;-81
2024/01/11 11:08:20;;;;;;;43.40;21.35;;;;;;;;;;5079536;28;20538;-80
2024/01/11 11:10:47;;;;;;;43.25;22.67;;;;;;;;;;5082848;28;20389;-79
2024/01/11 11:13:15;;;;;;;43.90;22.45;;;;;;;;;;5073165;28;20529;-80
2024/01/11 11:15:42;;;;;;;38.45;20.75;;;;;;;;;;5068561;28;20040;-79
2024/01/11 11:18:09;;;;;;;43.20;21.60;;;;;;;;;;5065015;28;20082;-80
2024/01/11 11:20:36;;;;;;;40.85;21.23;;;;;;;;;;5083320;28;20062;-80
2024/01/11 11:23:15;;;;;;;42.42;21.83;;;;;;;;;;5054311;28;20040;-80
2024/01/11 11:25:58;;;;;;;42.80;21.20;;;;;;;;;;5081578;28;20048;-77
2024/01/11 11:28:24;;;;;;;38.53;21.30;;;;;;;;;;5087828;28;20109;-76
2024/01/11 11:30:52;;;;;;;47.97;23.00;;;;;;;;;;5065487;28;20079;-75
2024/01/11 11:33:22;;;;;;;43.58;22.15;;;;;;;;;;5073030;28;20395;-76
2024/01/11 11:35:49;;;;;;;39.42;21.75;;;;;;;;;;5088520;28;20510;-77
2024/01/11 11:38:22;;;;;;;50.20;22.45;;;;;;;;;;5081388;28;20073;-77
2024/01/11 11:40:49;;;;;;;41.83;22.20;;;;;;;;;;5069744;28;20036;-78
2024/01/11 11:43:19;;;;;;;47.38;23.38;;;;;;;;;;5071032;28;20048;-82
2024/01/11 11:45:47;;;;;;;51.03;24.20;;;;;;;;;;5075852;28;20372;-81
2024/01/11 11:48:32;;;;;;;46.53;23.20;;;;;;;;;;5071968;28;20407;-82
2024/01/11 11:51:12;;;;;;;45.28;22.88;;;;;;;;;;5070644;28;20040;-81
2024/01/11 11:53:39;;;;;;;45.60;21.75;;;;;;;;;;5087939;28;20399;-82
2024/01/11 11:56:06;;;;;;;47.15;22.85;;;;;;;;;;5060694;28;20094;-81
2024/01/11 11:58:32;;;;;;;49.33;22.80;;;;;;;;;;5086576;28;20050;-81
2024/01/11 12:00:59;;;;;;;49.63;23.65;;;;;;;;;;5081065;28;20041;-81
2024/01/11 12:03:32;;;;;;;48.33;23.13;;;;;;;;;;5066759;28;20396;-82
2024/01/11 12:05:59;;;;;;;43.20;21.67;;;;;;;;;;5086435;28;20087;-81
2024/01/11 12:08:25;;;;;;;39.63;20.10;;;;;;;;;;5075691;28;20286;-81
2024/01/11 12:10:52;;;;;;;51.78;23.55;;;;;;;;;;5079228;28;20104;-81
2024/01/11 12:13:20;;;;;;;45.72;21.25;;;;;;;;;;5071689;28;20045;-80
2024/01/11 12:15:46;;;;;;;48.58;21.60;;;;;;;;;;5066900;28;20890;-81
2024/01/11 12:18:12;;;;;;;44.70;21.08;;;;;;;;;;5084275;28;20036;-81
2024/01/11 12:20:39;;;;;;;47.85;20.17;;;;;;;;;;5070544;28;20368;-81
2024/01/11 12:23:05;;;;;;;44.83;21.52;;;;;;;;;;5071046;28;20036;-80
2024/01/11 12:25:31;;;;;;;56.58;24.48;;;;;;;;;;5070767;28;20093;-81
2024/01/11 12:27:57;;;;;;;44.67;22.55;;;;;;;;;;5081887;28;20032;-81
2024/01/11 12:30:24;;;;;;;45.67;22.60;;;;;;;;;;5067825;28;20446;-81
2024/01/11 12:32:54;;;;;;;46.63;22.00;;;;;;;;;;5065406;28;20115;-81
2024/01/11 12:35:20;;;;;;;46.28;22.92;;;;;;;;;;5077607;28;20452;-81
2024/01/11 12:37:58;;;;;;;52.15;25.90;;;;;;;;;;5081804;28;20032;-81
2024/01/11 12:40:24;;;;;;;51.33;23.02;;;;;;;;;;5083272;28;20543;-81
2024/01/11 12:42:50;;;;;;;51.08;24.98;;;;;;;;;;5065994;28;20611;-81
2024/01/11 12:45:20;;;;;;;53.28;24.98;;;;;;;;;;5068179;28;20155;-81
2024/01/11 12:47:46;;;;;;;53.20;25.45;;;;;;;;;;5079275;28;20188;-81
2024/01/11 12:50:12;;;;;;;55.03;26.50;;;;;;;;;;5076185;28;20077;-82
2024/01/11 12:52:39;;;;;;;42.08;22.45;;;;;;;;;;5079035;28;20058;-81
2024/01/11 12:55:08;;;;;;;53.95;23.88;;;;;;;;;;5083540;28;20137;-81
2024/01/11 12:57:34;;;;;;;56.70;27.65;;;;;;;;;;5070968;28;20110;-82
2024/01/11 13:00:13;;;;;;;55.85;24.90;;;;;;;;;;5101777;28;20032;-81
2024/01/11 13:02:46;;;;;;;56.47;25.83;;;;;;;;;;5068837;28;20044;-81
2024/01/11 13:05:12;;;;;;;55.03;24.10;;;;;;;;;;5069983;28;20140;-81
2024/01/11 13:07:38;;;;;;;57.35;25.95;;;;;;;;;;5071679;28;20101;-82
2024/01/11 13:10:04;;;;;;;57.63;25.23;;;;;;;;;;5083815;28;20043;-81
2024/01/11 13:12:31;;;;;;;60.75;27.35;;;;;;;;;;5087783;28;20043;-82
2024/01/11 13:14:57;;;;;;;61.78;27.08;;;;;;;;;;5069979;28;20046;-81
2024/01/11 13:17:23;;;;;;;58.72;24.88;;;;;;;;;;5081760;28;20500;-84
2024/01/11 13:19:49;;;;;;;57.65;23.95;;;;;;;;;;5101934;28;20054;-82
2024/01/11 13:22:15;;;;;;;55.00;24.33;;;;;;;;;;5055945;28;20040;-81
2024/01/11 13:24:41;;;;;;;49.33;20.42;;;;;;;;;;5096618;28;20036;-83
2024/01/11 13:27:07;;;;;;;59.20;24.50;;;;;;;;;;5069898;28;20040;-80
2024/01/11 13:29:33;;;;;;;52.33;22.27;;;;;;;;;;5064844;28;20491;-82
2024/01/11 13:31:59;;;;;;;54.50;25.38;;;;;;;;;;5056501;28;20044;-82
2024/01/11 13:34:26;;;;;;;50.65;23.38;;;;;;;;;;5073458;28;20119;-81
2024/01/11 13:36:52;;;;;;;59.15;26.48;;;;;;;;;;5074070;28;20487;-81
2024/01/11 13:39:20;;;;;;;52.40;20.92;;;;;;;;;;5087192;28;20064;-81
2024/01/11 13:41:47;;;;;;;50.78;22.17;;;;;;;;;;5073908;28;21523;-81
2024/01/11 13:44:13;;;;;;;53.28;22.90;;;;;;;;;;5070034;28;20044;-81
2024/01/11 13:46:39;;;;;;;55.55;22.98;;;;;;;;;;5066282;28;20047;-84
2024/01/11 13:49:08;;;;;;;51.72;23.90;;;;;;;;;;5086246;28;20764;-83
2024/01/11 13:51:34;;;;;;;55.67;24.05;;;;;;;;;;5093731;28;20484;-83
2024/01/11 13:54:00;;;;;;;58.80;23.73;;;;;;;;;;5087230;28;20088;-83
2024/01/11 13:56:28;;;;;;;58.70;24.98;;;;;;;;;;5072679;28;20052;-83
2024/01/11 13:58:54;;;;;;;62.70;25.73;;;;;;;;;;5072764;28;20039;-83
2024/01/11 14:01:20;;;;;;;54.50;23.35;;;;;;;;;;5069225;28;20036;-83
2024/01/11 14:03:46;;;;;;;60.10;25.58;;;;;;;;;;5055557;28;20036;-82
2024/01/11 14:06:12;;;;;;;73.38;27.23;;;;;;;;;;5080651;28;20099;-83
2024/01/11 14:08:38;;;;;;;54.38;25.15;;;;;;;;;;5083411;28;20055;-82
2024/01/11 14:11:05;;;;;;;53.65;25.27;;;;;;;;;;5081308;28;20079;-82
2024/01/11 14:13:31;;;;;;;56.95;25.02;;;;;;;;;;5079510;28;20094;-80